Time;durP1;ratioP1;P1;durP2;ratioP2;P2;SDS_P1;SDS_P2;PMS_P1;PMS_P2;Temp;Humidity;BMP_temperature;BMP_pressure;BME280_temperature;BME280_humidity;BME280_pressure;Samples;Min_cycle;Max_cycle;Signal;HPM_P1;HPM_P2
2022/12/29 00:01:29;;;;;;;;;;;;;;;5.58;85.86;100884.75;5070982;28;19915;-36
2022/12/29 00:03:54;;;;;;;;;;;;;;;5.30;86.53;100882.06;5070961;28;19955;-36
2022/12/29 00:06:19;;;;;;;;;;;;;;;5.30;86.18;100887.34;5071654;28;19914;-36
2022/12/29 00:08:44;;;;;;;;;;;;;;;5.38;86.07;100887.44;5071017;28;20384;-36
2022/12/29 00:11:12;;;;;;;;;;;;;;;5.43;85.07;100889.69;5069506;28;20007;-36
2022/12/29 00:16:21;;;;;;;;;;;;;;;5.10;84.09;100854.84;5071461;28;19916;-35
2022/12/29 00:18:47;;;;;;;;;;;;;;;5.20;84.19;100895.25;5070380;28;19920;-36
2022/12/29 00:35:26;;;;;;;;;;;;;;;5.30;85.14;100908.44;5070440;28;19915;-36
2022/12/29 00:46:05;;;;;;;;;;;;;;;5.43;85.40;100924.00;5070915;28;19958;-43
2022/12/29 00:51:15;;;;;;;;;;;;;;;5.24;86.18;100922.22;5070422;28;20100;-42
2022/12/29 00:53:40;;;;;;;;;;;;;;;5.29;85.59;100936.66;5070299;28;20380;-42
2022/12/29 00:56:05;;;;;;;;;;;;;;;5.28;86.37;100934.16;5070658;28;19938;-43
2022/12/29 00:58:30;;;;;;;;;;;;;;;5.28;86.35;100936.78;5070269;28;20556;-43
2022/12/29 01:01:03;;;;;;;;;;;;;;;5.16;86.91;100930.84;5070579;28;19912;-43
2022/12/29 01:03:28;;;;;;;;;;;;;;;5.19;87.77;100929.72;5070668;28;19981;-42
2022/12/29 01:05:53;;;;;;;;;;;;;;;5.26;88.03;100931.66;5070630;28;20364;-43
2022/12/29 01:08:19;;;;;;;;;;;;;;;5.52;86.38;100933.72;5070320;28;20371;-43
2022/12/29 01:10:44;;;;;;;;;;;;;;;5.36;87.09;100929.00;5070842;28;19912;-43
2022/12/29 01:13:09;;;;;;;;;;;;;;;5.47;86.84;100925.38;5070330;28;19915;-43
2022/12/29 01:15:34;;;;;;;;;;;;;;;5.42;87.00;100922.31;5070178;28;19969;-42
2022/12/29 01:18:00;;;;;;;;;;;;;;;5.72;85.27;100920.47;5069807;28;19912;-43
2022/12/29 01:20:27;;;;;;;;;;;;;;;5.79;84.53;100922.41;5069690;28;20000;-42
2022/12/29 01:22:52;;;;;;;;;;;;;;;5.69;85.35;100924.22;5070095;28;19923;-42
2022/12/29 01:25:17;;;;;;;;;;;;;;;5.82;85.55;100927.38;5070030;28;19908;-41
2022/12/29 01:27:43;;;;;;;;;;;;;;;5.73;85.04;100924.75;5070030;28;19908;-42
2022/12/29 01:30:08;;;;;;;;;;;;;;;5.70;85.03;100922.41;5069763;28;19916;-42
2022/12/29 01:32:34;;;;;;;;;;;;;;;5.70;86.41;100923.25;5070466;28;19912;-46
2022/12/29 01:34:59;;;;;;;;;;;;;;;6.05;85.50;100919.97;5070092;28;20308;-41
2022/12/29 01:37:24;;;;;;;;;;;;;;;5.80;85.11;100915.28;5069657;28;19962;-41
2022/12/29 01:39:49;;;;;;;;;;;;;;;5.93;84.55;100917.63;5069374;28;19909;-41
2022/12/29 01:42:18;;;;;;;;;;;;;;;5.94;84.42;100909.56;5069469;28;19958;-42
2022/12/29 01:44:49;;;;;;;;;;;;;;;6.19;83.42;100910.72;5069760;28;19908;-40
2022/12/29 01:47:18;;;;;;;;;;;;;;;6.00;83.51;100905.53;5069946;28;19913;-42
2022/12/29 01:49:43;;;;;;;;;;;;;;;6.02;84.13;100893.00;5069634;28;19916;-42
2022/12/29 01:52:09;;;;;;;;;;;;;;;5.99;84.03;100893.28;5069577;28;19994;-41
2022/12/29 01:54:43;;;;;;;;;;;;;;;5.92;84.49;100893.03;5069743;28;19990;-42
2022/12/29 01:57:13;;;;;;;;;;;;;;;5.83;84.86;100884.13;5069504;28;19966;-42
2022/12/29 01:59:42;;;;;;;;;;;;;;;5.86;84.00;100883.88;5072277;28;19908;-42
2022/12/29 02:02:08;;;;;;;;;;;;;;;6.10;83.60;100884.34;5074134;28;19918;-42
2022/12/29 02:04:34;;;;;;;;;;;;;;;6.29;82.96;100884.25;5073471;28;19990;-42
2022/12/29 02:07:02;;;;;;;;;;;;;;;6.51;81.90;100874.22;5074005;28;20280;-42
2022/12/29 02:09:27;;;;;;;;;;;;;;;6.68;80.40;100869.94;5073075;28;20257;-42
2022/12/29 02:11:53;;;;;;;;;;;;;;;6.37;81.68;100865.81;5073171;28;19966;-42
2022/12/29 02:14:19;;;;;;;;;;;;;;;6.35;81.88;100865.13;5073369;28;20429;-42
2022/12/29 02:17:11;;;;;;;;;;;;;;;6.12;83.24;100862.06;5073837;28;19912;-42
2022/12/29 02:19:42;;;;;;;;;;;;;;;6.03;83.22;100850.56;5073845;28;19978;-42
2022/12/29 02:22:07;;;;;;;;;;;;;;;6.21;82.67;100855.91;5073876;28;20006;-42
2022/12/29 02:24:32;;;;;;;;;;;;;;;6.39;81.49;100847.16;5073712;28;20015;-42
2022/12/29 02:26:58;;;;;;;;;;;;;;;6.30;81.85;100851.53;5073968;28;19909;-42
2022/12/29 02:29:41;;;;;;;;;;;;;;;6.48;81.53;100846.28;5073660;28;19915;-42
2022/12/29 02:32:10;;;;;;;;;;;;;;;6.28;82.60;100840.28;5073844;28;20319;-42
2022/12/29 02:34:41;;;;;;;;;;;;;;;6.54;80.63;100840.38;5073581;28;20346;-42
2022/12/29 02:37:07;;;;;;;;;;;;;;;6.56;81.06;100841.06;5073406;28;19908;-42
2022/12/29 02:39:37;;;;;;;;;;;;;;;6.63;81.08;100838.66;5073109;28;20010;-42
2022/12/29 02:42:22;;;;;;;;;;;;;;;6.36;81.42;100831.59;5073460;28;19944;-42
2022/12/29 02:44:52;;;;;;;;;;;;;;;6.23;81.89;100835.44;5073333;28;19912;-42
2022/12/29 02:47:20;;;;;;;;;;;;;;;6.28;81.73;100837.63;5073622;28;19913;-42
2022/12/29 02:49:49;;;;;;;;;;;;;;;6.62;80.90;100837.81;5073109;28;19916;-42
2022/12/29 02:52:19;;;;;;;;;;;;;;;6.42;81.87;100836.31;5073166;28;19923;-42
2022/12/29 02:54:47;;;;;;;;;;;;;;;6.54;80.90;100824.50;5072899;28;20010;-41
2022/12/29 02:57:22;;;;;;;;;;;;;;;6.62;81.01;100829.88;5073233;28;19908;-42
2022/12/29 03:00:07;;;;;;;;;;;;;;;6.36;81.25;100824.50;5072969;28;19908;-42
2022/12/29 03:02:51;;;;;;;;;;;;;;;6.26;82.06;100829.00;5071272;28;20295;-42
2022/12/29 03:05:33;;;;;;;;;;;;;;;6.45;81.57;100826.25;5073143;28;19912;-42
2022/12/29 03:08:01;;;;;;;;;;;;;;;6.37;81.24;100820.88;5073183;28;19908;-42
2022/12/29 03:10:34;;;;;;;;;;;;;;;6.52;80.78;100829.13;5071571;28;19916;-42
2022/12/29 03:16:03;;;;;;;;;;;;;;;6.57;79.66;100818.94;5072886;28;19920;-42
2022/12/29 03:18:40;;;;;;;;;;;;;;;6.36;80.94;100819.22;5072413;28;19920;-42
2022/12/29 03:21:16;;;;;;;;;;;;;;;6.12;81.17;100834.81;5072894;28;19908;-43
2022/12/29 03:23:43;;;;;;;;;;;;;;;6.23;81.11;100821.41;5072469;28;19909;-42
2022/12/29 03:26:10;;;;;;;;;;;;;;;6.01;81.99;100822.63;5073073;28;19918;-42
2022/12/29 03:28:38;;;;;;;;;;;;;;;6.03;82.16;100823.31;5072464;28;19947;-42
2022/12/29 03:31:04;;;;;;;;;;;;;;;6.06;81.70;100823.03;5072505;28;19918;-42
2022/12/29 03:33:30;;;;;;;;;;;;;;;6.06;81.14;100815.91;5072681;28;20295;-42
2022/12/29 03:35:58;;;;;;;;;;;;;;;6.01;81.73;100822.63;5072381;28;20221;-42
2022/12/29 03:38:29;;;;;;;;;;;;;;;5.91;82.72;100822.66;5072165;28;19912;-42
2022/12/29 03:40:59;;;;;;;;;;;;;;;5.78;82.82;100815.06;5072204;28;20551;-42
2022/12/29 03:43:25;;;;;;;;;;;;;;;5.74;83.57;100815.50;5072355;28;19908;-42
2022/12/29 03:45:51;;;;;;;;;;;;;;;5.53;83.60;100813.91;5072225;28;19908;-43
2022/12/29 03:48:16;;;;;;;;;;;;;;;5.60;83.41;100809.72;5072143;28;20000;-42
2022/12/29 03:50:41;;;;;;;;;;;;;;;5.52;83.58;100814.91;5072216;28;19917;-42
2022/12/29 03:53:07;;;;;;;;;;;;;;;5.51;83.22;100821.16;5072089;28;19912;-42
2022/12/29 03:55:32;;;;;;;;;;;;;;;5.54;83.20;100817.38;5071904;28;19915;-42
2022/12/29 03:57:58;;;;;;;;;;;;;;;5.43;83.20;100813.13;5071867;28;19950;-42
2022/12/29 04:00:23;;;;;;;;;;;;;;;5.02;84.09;100810.69;5071807;28;19990;-42
2022/12/29 04:02:48;;;;;;;;;;;;;;;4.98;85.90;100814.59;5071952;28;19912;-42
2022/12/29 04:05:14;;;;;;;;;;;;;;;5.16;84.44;100813.88;5071849;28;19908;-42
2022/12/29 04:07:39;;;;;;;;;;;;;;;5.07;84.48;100824.31;5071374;28;19916;-42
2022/12/29 04:10:04;;;;;;;;;;;;;;;5.11;83.86;100821.41;5071703;28;20419;-42
2022/12/29 04:12:30;;;;;;;;;;;;;;;4.88;85.68;100821.69;5071436;28;19912;-42
2022/12/29 04:14:55;;;;;;;;;;;;;;;4.88;85.24;100833.06;5071233;28;19916;-42
2022/12/29 04:17:20;;;;;;;;;;;;;;;4.83;85.83;100826.53;5071313;28;19931;-42
2022/12/29 04:19:45;;;;;;;;;;;;;;;4.74;85.68;100822.97;5071457;28;19928;-41
2022/12/29 04:22:11;;;;;;;;;;;;;;;4.72;85.61;100824.88;5070880;28;19931;-41
2022/12/29 04:24:36;;;;;;;;;;;;;;;4.69;85.82;100830.44;5071215;28;20393;-42
2022/12/29 04:27:02;;;;;;;;;;;;;;;4.57;86.80;100836.81;5070701;28;19955;-42
2022/12/29 04:29:27;;;;;;;;;;;;;;;4.60;86.52;100837.38;5070666;28;19908;-42
2022/12/29 04:31:52;;;;;;;;;;;;;;;4.57;87.23;100840.28;5071198;28;19912;-42
2022/12/29 04:34:18;;;;;;;;;;;;;;;4.50;86.97;100845.28;5071354;28;19909;-42
2022/12/29 04:36:43;;;;;;;;;;;;;;;4.74;86.61;100849.31;5071104;28;20448;-42
2022/12/29 04:39:08;;;;;;;;;;;;;;;4.49;86.61;100851.53;5071024;28;19911;-42
2022/12/29 04:41:33;;;;;;;;;;;;;;;4.74;86.70;100853.75;5071019;28;20273;-42
2022/12/29 04:43:59;;;;;;;;;;;;;;;4.51;87.08;100859.28;5071113;28;19916;-43
2022/12/29 04:46:24;;;;;;;;;;;;;;;4.41;87.15;100858.44;5071340;28;20335;-42
2022/12/29 04:48:50;;;;;;;;;;;;;;;4.28;87.51;100859.53;5070846;28;19915;-43
2022/12/29 04:51:15;;;;;;;;;;;;;;;4.19;88.07;100862.97;5070817;28;19912;-42
2022/12/29 04:53:40;;;;;;;;;;;;;;;4.05;89.36;100864.16;5070484;28;20355;-43
2022/12/29 04:56:06;;;;;;;;;;;;;;;4.35;89.77;100856.34;5070409;28;19915;-42
2022/12/29 04:58:31;;;;;;;;;;;;;;;4.44;88.89;100864.28;5070209;28;19909;-42
2022/12/29 05:00:56;;;;;;;;;;;;;;;4.15;89.35;100866.00;5070402;28;20384;-42
2022/12/29 05:03:22;;;;;;;;;;;;;;;4.15;89.40;100872.13;5070726;28;19950;-42
2022/12/29 05:05:47;;;;;;;;;;;;;;;4.17;89.25;100870.19;5070286;28;19930;-42
2022/12/29 05:08:12;;;;;;;;;;;;;;;3.79;88.65;100878.75;5070385;28;19912;-42
2022/12/29 05:10:37;;;;;;;;;;;;;;;4.14;90.43;100882.78;5070303;28;19930;-42
2022/12/29 05:13:03;;;;;;;;;;;;;;;4.11;89.79;100881.22;5070400;28;19908;-43
2022/12/29 05:15:28;;;;;;;;;;;;;;;3.96;90.10;100879.94;5070683;28;19978;-42
2022/12/29 05:17:53;;;;;;;;;;;;;;;4.01;90.49;100875.94;5070496;28;19924;-42
2022/12/29 05:20:19;;;;;;;;;;;;;;;4.11;91.21;100878.59;5070120;28;20372;-42
2022/12/29 05:22:44;;;;;;;;;;;;;;;5.99;100.00;100877.44;5070719;28;19913;-43
2022/12/29 05:25:11;;;;;;;;;;;;;;;7.80;100.00;100879.88;5070543;28;19920;-42
2022/12/29 05:27:36;;;;;;;;;;;;;;;8.53;90.50;100873.22;5070981;28;19915;-43
2022/12/29 05:30:02;;;;;;;;;;;;;;;7.57;84.64;100866.34;5070647;28;19912;-43
2022/12/29 05:32:27;;;;;;;;;;;;;;;7.61;86.28;100863.22;5070435;28;19916;-42
2022/12/29 05:34:52;;;;;;;;;;;;;;;7.84;83.59;100865.31;5070034;28;19998;-43
2022/12/29 05:37:18;;;;;;;;;;;;;;;7.54;84.13;100867.50;5070549;28;19914;-43
2022/12/29 05:39:43;;;;;;;;;;;;;;;7.25;74.35;100865.13;5070192;28;19909;-42
2022/12/29 05:42:08;;;;;;;;;;;;;;;6.36;75.46;100868.59;5070120;28;19915;-42
2022/12/29 05:44:33;;;;;;;;;;;;;;;5.88;78.42;100868.69;5069925;28;20372;-43
2022/12/29 05:46:59;;;;;;;;;;;;;;;5.32;81.14;100858.16;5070475;28;20334;-43
2022/12/29 05:49:24;;;;;;;;;;;;;;;5.20;81.21;100849.56;5069646;28;19909;-43
2022/12/29 05:51:49;;;;;;;;;;;;;;;4.88;81.77;100848.91;5069227;28;20368;-43
2022/12/29 05:54:14;;;;;;;;;;;;;;;4.64;82.87;100848.47;5069518;28;19915;-43
2022/12/29 05:56:40;;;;;;;;;;;;;;;4.97;88.09;100849.00;5069060;28;19909;-42
2022/12/29 05:59:05;;;;;;;;;;;;;;;4.72;85.50;100847.78;5068629;28;19909;-42
2022/12/29 06:01:30;;;;;;;;;;;;;;;4.66;84.98;100849.16;5068382;28;19908;-42
2022/12/29 06:03:56;;;;;;;;;;;;;;;4.78;85.59;100856.00;5068461;28;20281;-42
2022/12/29 06:06:21;;;;;;;;;;;;;;;4.90;85.13;100867.22;5068939;28;19951;-42
2022/12/29 06:08:46;;;;;;;;;;;;;;;4.87;86.11;100860.44;5068472;28;19912;-42
2022/12/29 06:11:12;;;;;;;;;;;;;;;5.01;86.34;100861.81;5068741;28;19918;-42
2022/12/29 06:13:37;;;;;;;;;;;;;;;5.36;85.82;100859.53;5068994;28;19912;-42
2022/12/29 06:16:03;;;;;;;;;;;;;;;5.40;85.98;100858.28;5068618;28;20024;-42
2022/12/29 06:18:28;;;;;;;;;;;;;;;5.40;84.30;100853.00;5068271;28;19928;-43
2022/12/29 06:20:54;;;;;;;;;;;;;;;5.28;84.52;100860.25;5067972;28;19969;-42
2022/12/29 06:23:19;;;;;;;;;;;;;;;5.28;84.45;100858.44;5064502;28;20380;-42
2022/12/29 06:25:46;;;;;;;;;;;;;;;5.21;84.60;100869.69;5059105;28;19909;-42
2022/12/29 06:28:12;;;;;;;;;;;;;;;5.37;84.00;100867.31;5064858;28;19932;-42
2022/12/29 06:30:37;;;;;;;;;;;;;;;5.58;84.42;100874.19;5059806;28;20125;-41
2022/12/29 06:33:03;;;;;;;;;;;;;;;5.37;83.49;100871.75;5068870;28;20019;-42
2022/12/29 06:35:28;;;;;;;;;;;;;;;5.66;84.04;100874.34;5068938;28;20228;-43
2022/12/29 06:37:53;;;;;;;;;;;;;;;5.90;83.04;100875.63;5069440;28;19966;-41
2022/12/29 06:40:19;;;;;;;;;;;;;;;5.98;81.34;100881.91;5069435;28;19908;-42
2022/12/29 06:42:44;;;;;;;;;;;;;;;6.12;81.57;100891.16;5069353;28;19965;-43
2022/12/29 06:45:09;;;;;;;;;;;;;;;6.32;81.36;100893.69;5071089;28;19908;-43
2022/12/29 06:47:35;;;;;;;;;;;;;;;6.36;80.25;100900.34;5070918;28;19954;-43
2022/12/29 06:50:01;;;;;;;;;;;;;;;6.57;78.44;100892.16;5062631;28;20118;-42
2022/12/29 06:52:26;;;;;;;;;;;;;;;6.84;79.07;100904.50;5065591;28;19912;-47
2022/12/29 06:54:51;;;;;;;;;;;;;;;6.65;75.50;100900.19;5053376;28;19916;-49
2022/12/29 06:57:16;;;;;;;;;;;;;;;6.38;77.73;100901.03;5051055;28;20357;-49
2022/12/29 06:59:42;;;;;;;;;;;;;;;6.33;78.21;100909.41;5051478;28;19920;-49
2022/12/29 07:02:09;;;;;;;;;;;;;;;6.97;75.83;100907.59;5051140;28;20308;-42
2022/12/29 07:04:34;;;;;;;;;;;;;;;6.95;76.02;100912.22;5050200;28;19942;-43
2022/12/29 07:06:59;;;;;;;;;;;;;;;6.55;77.66;100916.13;5049974;28;19912;-42
2022/12/29 07:09:25;;;;;;;;;;;;;;;6.88;77.14;100910.31;5049798;28;19920;-43
2022/12/29 07:11:51;;;;;;;;;;;;;;;7.11;77.41;100914.16;5049488;28;19919;-43
2022/12/29 07:14:16;;;;;;;;;;;;;;;7.01;76.43;100916.91;5049582;28;19952;-43
2022/12/29 07:16:41;;;;;;;;;;;;;;;7.32;76.88;100920.97;5049547;28;19913;-43
2022/12/29 07:19:06;;;;;;;;;;;;;;;7.44;75.29;100917.94;5048973;28;19925;-42
2022/12/29 07:21:32;;;;;;;;;;;;;;;7.63;76.13;100916.03;5049387;28;20287;-43
2022/12/29 07:23:57;;;;;;;;;;;;;;;7.72;74.68;100917.75;5049700;28;19912;-43
2022/12/29 07:26:22;;;;;;;;;;;;;;;7.71;73.95;100907.31;5050554;28;19932;-43
2022/12/29 07:28:48;;;;;;;;;;;;;;;7.88;74.15;100908.25;5050422;28;20082;-43
2022/12/29 07:31:20;;;;;;;;;;;;;;;8.14;72.72;100910.88;5059644;28;20368;-42
2022/12/29 07:33:46;;;;;;;;;;;;;;;8.39;71.63;100912.59;5070273;28;20312;-44
2022/12/29 07:36:12;;;;;;;;;;;;;;;8.66;69.93;100915.22;5070776;28;19908;-41
2022/12/29 07:38:37;;;;;;;;;;;;;;;8.99;68.37;100902.84;5070469;28;19912;-42
2022/12/29 07:41:02;;;;;;;;;;;;;;;9.53;66.48;100912.94;5070130;28;20293;-42
2022/12/29 07:43:28;;;;;;;;;;;;;;;8.98;67.92;100909.94;5070230;28;19908;-42
2022/12/29 07:45:53;;;;;;;;;;;;;;;8.87;67.67;100905.00;5070279;28;19908;-43
2022/12/29 07:48:18;;;;;;;;;;;;;;;8.66;68.12;100913.38;5069876;28;19985;-43
2022/12/29 07:50:44;;;;;;;;;;;;;;;8.84;66.80;100901.84;5070385;28;20305;-42
2022/12/29 07:53:09;;;;;;;;;;;;;;;8.84;66.87;100905.31;5070499;28;19915;-41
2022/12/29 07:55:34;;;;;;;;;;;;;;;8.87;67.19;100901.47;5070490;28;19950;-41
2022/12/29 07:57:59;;;;;;;;;;;;;;;9.03;66.46;100906.00;5068917;28;19908;-42
2022/12/29 08:00:25;;;;;;;;;;;;;;;8.94;66.35;100916.59;5070469;28;19946;-42
2022/12/29 08:02:50;;;;;;;;;;;;;;;9.07;67.39;100912.63;5070860;28;20391;-42
2022/12/29 08:05:16;;;;;;;;;;;;;;;9.21;67.52;100909.31;5071015;28;19912;-42
2022/12/29 08:07:44;;;;;;;;;;;;;;;9.25;66.97;100917.78;5070166;28;19909;-43
2022/12/29 08:10:10;;;;;;;;;;;;;;;9.14;67.10;100916.31;5070689;28;19962;-42
2022/12/29 08:12:37;;;;;;;;;;;;;;;9.37;66.78;100916.47;5070604;28;19908;-43
2022/12/29 08:15:02;;;;;;;;;;;;;;;9.33;67.45;100920.44;5070404;28;19917;-43
2022/12/29 08:17:28;;;;;;;;;;;;;;;9.54;66.28;100915.44;5070513;28;19920;-42
2022/12/29 08:19:53;;;;;;;;;;;;;;;9.35;65.90;100913.16;5069773;28;20350;-42
2022/12/29 08:22:18;;;;;;;;;;;;;;;9.28;66.48;100920.13;5069982;28;19914;-41
2022/12/29 08:24:44;;;;;;;;;;;;;;;9.47;65.85;100916.28;5070251;28;19915;-43
2022/12/29 08:27:09;;;;;;;;;;;;;;;9.95;63.93;100915.34;5070492;28;19908;-43
2022/12/29 08:29:34;;;;;;;;;;;;;;;9.97;63.10;100909.84;5069988;28;20299;-42
2022/12/29 08:31:59;;;;;;;;;;;;;;;9.79;62.91;100904.78;5069927;28;19912;-42
2022/12/29 08:34:25;;;;;;;;;;;;;;;9.90;63.51;100909.72;5069997;28;20336;-41
2022/12/29 08:36:50;;;;;;;;;;;;;;;10.23;61.91;100906.13;5070113;28;19915;-42
2022/12/29 08:39:15;;;;;;;;;;;;;;;10.50;61.48;100904.84;5069559;28;20414;-42
2022/12/29 08:41:41;;;;;;;;;;;;;;;10.40;62.59;100902.41;5069943;28;19908;-43
2022/12/29 08:44:06;;;;;;;;;;;;;;;10.24;61.84;100897.13;5070263;28;19916;-41
2022/12/29 08:46:31;;;;;;;;;;;;;;;10.73;61.96;100905.69;5070141;28;19912;-42
2022/12/29 08:48:56;;;;;;;;;;;;;;;10.91;60.47;100897.44;5069928;28;20344;-43
2022/12/29 08:51:25;;;;;;;;;;;;;;;10.54;61.62;100890.19;5069951;28;20346;-43
2022/12/29 08:53:50;;;;;;;;;;;;;;;11.03;60.80;100897.03;5069410;28;19915;-42
2022/12/29 08:56:15;;;;;;;;;;;;;;;11.24;59.75;100886.53;5069829;28;19908;-41
2022/12/29 08:58:41;;;;;;;;;;;;;;;11.24;59.62;100883.03;5069792;28;20392;-42
2022/12/29 09:01:06;;;;;;;;;;;;;;;12.30;58.26;100875.75;5069377;28;19908;-43
2022/12/29 09:03:32;;;;;;;;;;;;;;;12.59;55.61;100885.53;5069486;28;19966;-41
2022/12/29 09:05:57;;;;;;;;;;;;;;;12.50;55.63;100871.44;5069965;28;19919;-44
2022/12/29 09:08:23;;;;;;;;;;;;;;;11.60;57.70;100866.38;5069583;28;20376;-43
2022/12/29 09:10:49;;;;;;;;;;;;;;;11.37;58.76;100859.28;5069521;28;19995;-42
2022/12/29 09:13:14;;;;;;;;;;;;;;;11.86;58.31;100865.91;5069396;28;19926;-41
2022/12/29 09:15:40;;;;;;;;;;;;;;;12.15;56.33;100859.75;5069370;28;19935;-43
2022/12/29 09:18:06;;;;;;;;;;;;;;;11.67;58.14;100854.78;5069344;28;20393;-41
2022/12/29 09:20:31;;;;;;;;;;;;;;;11.58;58.62;100857.75;5069009;28;19908;-41
2022/12/29 09:22:57;;;;;;;;;;;;;;;11.78;58.44;100848.16;5068856;28;19916;-42
2022/12/29 09:25:24;;;;;;;;;;;;;;;11.73;58.70;100838.06;5069279;28;20272;-42
2022/12/29 09:27:50;;;;;;;;;;;;;;;12.59;55.97;100839.31;5068984;28;19965;-42
2022/12/29 09:30:15;;;;;;;;;;;;;;;11.81;57.61;100845.13;5069095;28;19912;-42
2022/12/29 09:32:40;;;;;;;;;;;;;;;12.11;56.96;100843.28;5069171;28;19996;-42
2022/12/29 09:35:06;;;;;;;;;;;;;;;12.15;57.13;100826.91;5069134;28;19916;-42
2022/12/29 09:37:31;;;;;;;;;;;;;;;12.20;56.88;100828.00;5069159;28;19919;-42
2022/12/29 09:39:57;;;;;;;;;;;;;;;13.43;54.55;100819.88;5068806;28;19923;-43
2022/12/29 09:42:25;;;;;;;;;;;;;;;12.42;55.80;100822.69;5068882;28;19908;-42
2022/12/29 09:44:53;;;;;;;;;;;;;;;11.93;57.38;100811.66;5068858;28;20371;-42
2022/12/29 09:47:20;;;;;;;;;;;;;;;11.81;57.88;100806.97;5069039;28;19912;-42
2022/12/29 09:49:49;;;;;;;;;;;;;;;11.77;58.49;100798.53;5068700;28;19909;-42
2022/12/29 09:52:18;;;;;;;;;;;;;;;12.67;56.15;100793.78;5069155;28;19915;-42
2022/12/29 09:54:55;;;;;;;;;;;;;;;12.19;56.25;100799.66;5069056;28;19947;-42
2022/12/29 09:57:33;;;;;;;;;;;;;;;12.46;55.62;100787.41;5068633;28;19916;-41
2022/12/29 10:00:04;;;;;;;;;;;;;;;12.29;56.25;100784.16;5068744;28;20360;-42
2022/12/29 10:02:41;;;;;;;;;;;;;;;11.89;57.13;100780.19;5068548;28;19947;-41
2022/12/29 10:05:17;;;;;;;;;;;;;;;11.94;56.55;100780.50;5068813;28;20038;-41
2022/12/29 10:07:51;;;;;;;;;;;;;;;11.71;57.70;100776.09;5068572;28;20365;-43
2022/12/29 10:10:17;;;;;;;;;;;;;;;11.88;57.11;100775.88;5068435;28;20076;-41
2022/12/29 10:12:45;;;;;;;;;;;;;;;12.07;57.21;100737.97;5068650;28;20397;-43
2022/12/29 10:15:18;;;;;;;;;;;;;;;12.58;56.73;100766.38;5068979;28;19916;-41
2022/12/29 10:17:58;;;;;;;;;;;;;;;13.27;54.40;100759.50;5068484;28;19998;-42
2022/12/29 10:20:27;;;;;;;;;;;;;;;12.49;55.13;100763.03;5069580;28;19916;-42
2022/12/29 10:22:52;;;;;;;;;;;;;;;12.52;55.45;100753.78;5071292;28;19912;-42
2022/12/29 10:25:23;;;;;;;;;;;;;;;12.79;54.32;100754.84;5071069;28;19919;-42
2022/12/29 10:27:49;;;;;;;;;;;;;;;12.86;54.40;100754.91;5071439;28;20562;-42
2022/12/29 10:30:15;;;;;;;;;;;;;;;12.28;54.40;100746.97;5071509;28;19934;-42
2022/12/29 10:33:09;;;;;;;;;;;;;;;11.88;56.45;100750.03;5071175;28;19908;-42
2022/12/29 10:35:37;;;;;;;;;;;;;;;12.31;55.12;100749.28;5057730;28;20427;-42
2022/12/29 10:38:11;;;;;;;;;;;;;;;11.88;56.66;100750.03;5071136;28;19924;-42
2022/12/29 10:40:39;;;;;;;;;;;;;;;12.12;56.83;100740.06;5070660;28;19908;-42
2022/12/29 10:43:23;;;;;;;;;;;;;;;12.54;55.14;100743.75;5070869;28;19935;-42
2022/12/29 10:45:50;;;;;;;;;;;;;;;12.57;55.05;100737.22;5071257;28;19915;-42
2022/12/29 10:48:35;;;;;;;;;;;;;;;12.20;55.91;100734.59;5070949;28;20033;-42
2022/12/29 10:51:03;;;;;;;;;;;;;;;11.82;56.87;100741.94;5070367;28;19913;-41
2022/12/29 10:53:37;;;;;;;;;;;;;;;12.79;54.70;100735.31;5071008;28;19912;-41
2022/12/29 10:56:14;;;;;;;;;;;;;;;12.89;53.40;100736.66;5070909;28;20361;-42
2022/12/29 10:58:41;;;;;;;;;;;;;;;12.70;54.45;100727.47;5071014;28;19908;-43
2022/12/29 11:01:11;;;;;;;;;;;;;;;12.64;55.14;100724.72;5070658;28;19919;-43
2022/12/29 11:03:58;;;;;;;;;;;;;;;13.17;54.81;100725.09;5070978;28;19908;-41
2022/12/29 11:06:25;;;;;;;;;;;;;;;14.16;50.88;100725.72;5071104;28;19970;-41
2022/12/29 11:08:53;;;;;;;;;;;;;;;13.55;51.75;100711.34;5070277;28;20027;-43
2022/12/29 11:11:23;;;;;;;;;;;;;;;12.94;53.49;100711.19;5070771;28;20032;-43
2022/12/29 11:13:50;;;;;;;;;;;;;;;13.89;52.10;100713.09;5071109;28;19908;-43
2022/12/29 11:16:26;;;;;;;;;;;;;;;13.08;52.68;100704.91;5070677;28;20000;-42
2022/12/29 11:18:51;;;;;;;;;;;;;;;12.45;54.88;100697.69;5070591;28;19924;-41
2022/12/29 11:21:26;;;;;;;;;;;;;;;12.31;55.28;100696.72;5069197;28;20113;-42
2022/12/29 11:23:56;;;;;;;;;;;;;;;13.20;53.22;100692.63;5070427;28;20033;-41
2022/12/29 11:26:22;;;;;;;;;;;;;;;13.07;53.60;100687.22;5070543;28;20359;-43
2022/12/29 11:29:03;;;;;;;;;;;;;;;12.51;54.58;100685.41;5069627;28;19922;-42
2022/12/29 11:31:29;;;;;;;;;;;;;;;12.17;56.05;100680.81;5070080;28;20015;-42
2022/12/29 11:33:54;;;;;;;;;;;;;;;13.06;53.67;100686.41;5070702;28;20094;-41
2022/12/29 11:36:22;;;;;;;;;;;;;;;13.06;53.26;100683.72;5070483;28;20364;-41
2022/12/29 11:38:49;;;;;;;;;;;;;;;13.12;53.50;100695.47;5069844;28;20398;-42
2022/12/29 11:41:19;;;;;;;;;;;;;;;12.92;53.85;100684.66;5069756;28;19943;-43
2022/12/29 11:43:47;;;;;;;;;;;;;;;13.10;52.87;100689.50;5070115;28;19930;-43
2022/12/29 11:46:15;;;;;;;;;;;;;;;12.67;53.44;100681.63;5070280;28;19908;-43
2022/12/29 11:48:41;;;;;;;;;;;;;;;12.30;54.27;100676.41;5069769;28;19931;-43
2022/12/29 11:51:07;;;;;;;;;;;;;;;12.35;55.58;100672.31;5070460;28;20268;-42
2022/12/29 11:53:39;;;;;;;;;;;;;;;12.20;55.58;100675.06;5069716;28;19908;-43
2022/12/29 11:56:09;;;;;;;;;;;;;;;13.09;53.36;100672.63;5070978;28;19908;-44
2022/12/29 11:58:36;;;;;;;;;;;;;;;12.97;52.79;100663.53;5070546;28;19916;-43
2022/12/29 12:01:23;;;;;;;;;;;;;;;12.58;53.59;100662.25;5070131;28;20363;-43
2022/12/29 12:03:54;;;;;;;;;;;;;;;13.34;53.50;100658.81;5070997;28;19916;-43
2022/12/29 12:06:23;;;;;;;;;;;;;;;13.26;51.83;100657.09;5071062;28;19943;-42
2022/12/29 12:08:55;;;;;;;;;;;;;;;13.32;52.60;100657.38;5070510;28;20434;-42
2022/12/29 12:11:22;;;;;;;;;;;;;;;13.15;52.64;100651.50;5070432;28;20264;-43
2022/12/29 12:13:53;;;;;;;;;;;;;;;13.37;52.10;100646.91;5070464;28;19915;-43
2022/12/29 12:16:21;;;;;;;;;;;;;;;14.39;50.42;100645.00;5071114;28;19912;-43
2022/12/29 12:18:46;;;;;;;;;;;;;;;13.86;50.03;100643.97;5069531;28;20000;-43
2022/12/29 12:21:14;;;;;;;;;;;;;;;13.76;51.11;100650.72;5070997;28;20011;-43
2022/12/29 12:23:53;;;;;;;;;;;;;;;12.85;52.88;100641.03;5071354;28;19908;-42
2022/12/29 12:26:20;;;;;;;;;;;;;;;13.89;52.64;100635.50;5071689;28;19935;-41
2022/12/29 12:28:51;;;;;;;;;;;;;;;13.45;51.17;100639.53;5071195;28;19936;-43
2022/12/29 12:31:33;;;;;;;;;;;;;;;12.85;53.18;100638.38;5070955;28;19969;-42
2022/12/29 12:34:01;;;;;;;;;;;;;;;12.82;53.65;100638.78;5071131;28;19977;-41
2022/12/29 12:36:29;;;;;;;;;;;;;;;12.56;53.41;100637.56;5070706;28;19909;-43
2022/12/29 12:39:11;;;;;;;;;;;;;;;11.76;55.64;100634.19;5070618;28;20297;-42
2022/12/29 12:41:57;;;;;;;;;;;;;;;12.02;55.99;100628.31;5071155;28;19908;-43
2022/12/29 12:44:41;;;;;;;;;;;;;;;12.04;55.67;100628.13;5070722;28;20327;-44
2022/12/29 12:47:14;;;;;;;;;;;;;;;12.06;55.79;100634.91;5070965;28;19914;-43
2022/12/29 12:49:56;;;;;;;;;;;;;;;12.91;53.80;100633.09;5070815;28;19998;-42
2022/12/29 12:52:35;;;;;;;;;;;;;;;12.62;54.53;100622.63;5070711;28;20379;-43
2022/12/29 12:55:01;;;;;;;;;;;;;;;12.63;54.35;100626.97;5070281;28;20057;-42
2022/12/29 12:57:50;;;;;;;;;;;;;;;12.93;53.63;100640.91;5070675;28;19932;-40
2022/12/29 13:00:17;;;;;;;;;;;;;;;12.46;53.91;100624.56;5071047;28;19970;-42
2022/12/29 13:02:43;;;;;;;;;;;;;;;12.51;53.44;100627.50;5070706;28;19940;-43
2022/12/29 13:05:29;;;;;;;;;;;;;;;13.57;63.48;100636.25;5070478;28;19952;-43
2022/12/29 13:08:26;;;;;;;;;;;;;;;14.08;57.07;100630.38;5070514;28;20469;-43
2022/12/29 13:10:58;;;;;;;;;;;;;;;14.17;52.89;100626.50;5016288;28;19917;-43
2022/12/29 13:13:32;;;;;;;;;;;;;;;14.41;52.61;100632.25;5070062;28;19915;-43
2022/12/29 13:16:05;;;;;;;;;;;;;;;14.56;53.34;100632.84;5070066;28;19928;-43
2022/12/29 13:18:48;;;;;;;;;;;;;;;14.76;50.17;100637.41;5069911;28;19986;-43